Time;durP1;ratioP1;P1;durP2;ratioP2;P2;SDS_P1;SDS_P2;PMS_P1;PMS_P2;Temp;Humidity;BMP_temperature;BMP_pressure;BME280_temperature;BME280_humidity;BME280_pressure;Samples;Min_cycle;Max_cycle;Signal;HPM_P1;HPM_P2
2022/03/05 00:02:22;;;;;;;11.63;10.10;;;0.70;99.90;;;;;;4946647;28;20457;-76
2022/03/05 00:04:49;;;;;;;11.20;10.17;;;0.60;99.90;;;;;;4964583;28;20951;-77
2022/03/05 00:07:16;;;;;;;12.23;9.93;;;0.50;99.90;;;;;;4963544;28;20469;-76
2022/03/05 00:09:43;;;;;;;12.40;10.63;;;0.50;99.90;;;;;;4963775;28;20502;-77
2022/03/05 00:12:11;;;;;;;10.93;9.80;;;0.50;99.90;;;;;;4967462;28;20449;-77
2022/03/05 00:14:38;;;;;;;12.60;10.13;;;0.50;99.90;;;;;;4963722;28;20485;-77
2022/03/05 00:17:07;;;;;;;11.80;10.47;;;0.50;99.90;;;;;;4954664;28;20462;-77
2022/03/05 00:19:34;;;;;;;11.40;9.90;;;0.40;99.90;;;;;;4975444;28;20952;-76
2022/03/05 00:22:01;;;;;;;11.63;10.10;;;0.40;99.90;;;;;;4975347;28;20444;-77
2022/03/05 00:24:28;;;;;;;11.00;9.77;;;0.30;99.90;;;;;;4974341;28;20502;-76
2022/03/05 00:26:55;;;;;;;11.83;10.17;;;0.30;99.90;;;;;;4951256;29;20458;-77
2022/03/05 00:29:24;;;;;;;11.50;9.97;;;0.40;99.90;;;;;;4947223;28;20451;-76
2022/03/05 00:31:52;;;;;;;11.00;9.83;;;0.30;99.90;;;;;;4962636;28;20490;-77
2022/03/05 00:34:18;;;;;;;10.57;9.47;;;0.30;99.90;;;;;;4963539;28;20536;-76
2022/03/05 00:36:45;;;;;;;10.73;9.60;;;0.30;99.90;;;;;;4945705;28;20474;-77
2022/03/05 00:39:12;;;;;;;12.07;10.57;;;0.30;99.90;;;;;;4967151;28;20442;-76
2022/03/05 00:41:40;;;;;;;10.63;9.53;;;0.20;99.90;;;;;;4960487;28;20437;-77
2022/03/05 00:44:07;;;;;;;11.20;9.93;;;0.20;99.90;;;;;;4948615;28;20966;-76
2022/03/05 00:46:35;;;;;;;11.60;10.40;;;0.20;99.90;;;;;;4949218;28;20529;-77
2022/03/05 00:49:03;;;;;;;12.00;9.93;;;0.20;99.90;;;;;;4973929;28;20485;-77
2022/03/05 00:51:30;;;;;;;11.47;10.30;;;0.10;99.90;;;;;;4974135;28;20434;-76
2022/03/05 00:53:56;;;;;;;11.60;10.37;;;0.10;99.90;;;;;;4973742;28;20505;-76
2022/03/05 00:56:23;;;;;;;13.00;9.97;;;0.20;99.90;;;;;;4965043;28;20486;-77
2022/03/05 00:58:50;;;;;;;13.60;10.63;;;0.10;99.90;;;;;;4969247;28;20516;-77
2022/03/05 01:01:17;;;;;;;11.07;9.60;;;0.10;99.90;;;;;;4967813;28;20461;-77
2022/03/05 01:03:45;;;;;;;13.50;10.20;;;0.00;99.90;;;;;;4966468;28;20555;-76
2022/03/05 01:06:12;;;;;;;13.83;10.37;;;0.00;99.90;;;;;;4957390;28;20539;-77
2022/03/05 01:08:38;;;;;;;13.70;10.60;;;0.00;99.90;;;;;;4963995;28;20502;-77
2022/03/05 01:11:05;;;;;;;13.53;11.03;;;-0.10;99.90;;;;;;4945693;28;20510;-77
2022/03/05 01:13:32;;;;;;;12.17;10.93;;;-0.10;99.90;;;;;;4962836;28;20430;-76
2022/03/05 01:15:59;;;;;;;11.47;10.27;;;-0.10;99.90;;;;;;4959892;28;20991;-77
2022/03/05 01:18:26;;;;;;;12.77;11.03;;;-0.10;99.90;;;;;;4963545;28;20444;-77
2022/03/05 01:20:54;;;;;;;13.37;10.73;;;-0.20;99.90;;;;;;4962196;28;20431;-76
2022/03/05 01:23:21;;;;;;;13.47;11.47;;;-0.20;99.90;;;;;;4966136;28;20462;-77
2022/03/05 01:25:48;;;;;;;13.93;11.63;;;-0.20;99.90;;;;;;4963730;28;20458;-77
2022/03/05 01:28:14;;;;;;;13.37;11.47;;;-0.30;99.90;;;;;;4964996;28;20449;-78
2022/03/05 01:30:41;;;;;;;13.40;11.33;;;-0.30;99.90;;;;;;4962061;28;20446;-77
2022/03/05 01:33:08;;;;;;;13.33;11.30;;;-0.30;99.90;;;;;;4959432;28;20981;-77
2022/03/05 01:35:35;;;;;;;12.30;11.03;;;-0.30;99.90;;;;;;4965400;28;20863;-77
2022/03/05 01:38:03;;;;;;;11.90;10.70;;;-0.30;99.90;;;;;;4965802;28;20974;-76
2022/03/05 01:40:31;;;;;;;12.63;11.30;;;-0.30;99.90;;;;;;4958060;28;20520;-76
2022/03/05 01:42:58;;;;;;;12.97;11.20;;;-0.30;99.90;;;;;;4950280;28;20558;-76
2022/03/05 01:45:25;;;;;;;12.93;11.60;;;-0.30;99.90;;;;;;4964160;28;20457;-76
2022/03/05 01:47:52;;;;;;;11.83;10.63;;;-0.40;99.90;;;;;;4962281;28;20454;-77
2022/03/05 01:50:19;;;;;;;12.77;11.13;;;-0.40;99.90;;;;;;4965114;28;20856;-75
2022/03/05 01:52:46;;;;;;;11.83;10.63;;;-0.30;99.90;;;;;;4956833;28;20430;-77
2022/03/05 01:55:15;;;;;;;11.67;10.00;;;-0.30;99.90;;;;;;4964585;28;20465;-76
2022/03/05 01:57:42;;;;;;;10.73;9.60;;;-0.20;99.90;;;;;;4942131;28;20474;-77
2022/03/05 02:00:11;;;;;;;11.27;9.90;;;-0.10;99.90;;;;;;4957752;28;20437;-77
2022/03/05 02:02:42;;;;;;;10.57;9.57;;;0.00;99.90;;;;;;4965628;28;20469;-77
2022/03/05 02:05:10;;;;;;;10.97;9.87;;;0.00;99.90;;;;;;4960914;28;20971;-77
2022/03/05 02:07:38;;;;;;;11.37;10.13;;;0.00;99.90;;;;;;4963179;28;20433;-76
2022/03/05 02:10:08;;;;;;;13.67;10.93;;;0.00;99.90;;;;;;4962471;28;20446;-77
2022/03/05 02:12:38;;;;;;;11.67;10.47;;;-0.10;99.90;;;;;;4957743;28;20446;-77
2022/03/05 02:15:07;;;;;;;11.43;10.30;;;-0.20;99.90;;;;;;4963636;28;20480;-78
2022/03/05 02:17:35;;;;;;;11.37;10.17;;;-0.30;99.90;;;;;;4959084;28;20512;-77
2022/03/05 02:20:03;;;;;;;11.93;9.63;;;-0.30;99.90;;;;;;4958296;28;20987;-79
2022/03/05 02:22:32;;;;;;;12.17;10.43;;;-0.30;99.90;;;;;;4961995;28;20450;-77
2022/03/05 02:24:59;;;;;;;11.47;9.97;;;-0.40;99.90;;;;;;4961620;28;21038;-76
2022/03/05 02:27:27;;;;;;;11.13;10.13;;;-0.40;99.90;;;;;;4961048;28;20862;-77
2022/03/05 02:29:56;;;;;;;11.57;10.27;;;-0.40;99.90;;;;;;4961725;28;20506;-76
2022/03/05 02:32:24;;;;;;;12.47;10.87;;;-0.40;99.90;;;;;;4943385;28;20986;-76
2022/03/05 02:34:51;;;;;;;10.53;9.53;;;-0.50;99.90;;;;;;4964922;28;20458;-76
2022/03/05 02:37:19;;;;;;;12.30;10.77;;;-0.50;99.90;;;;;;4962905;28;20619;-77
2022/03/05 02:39:49;;;;;;;10.90;9.80;;;-0.50;99.90;;;;;;4966628;28;20435;-76
2022/03/05 02:42:17;;;;;;;12.20;10.50;;;-0.60;99.90;;;;;;4962981;28;20439;-76
2022/03/05 02:44:44;;;;;;;11.57;9.93;;;-0.60;99.90;;;;;;4962513;28;20469;-77
2022/03/05 02:47:11;;;;;;;11.37;10.10;;;-0.60;99.90;;;;;;4961718;28;20462;-77
2022/03/05 02:49:38;;;;;;;11.23;10.00;;;-0.70;99.90;;;;;;4943068;28;21746;-77
2022/03/05 02:52:06;;;;;;;14.03;9.63;;;-0.70;99.90;;;;;;4956445;28;20783;-76
2022/03/05 02:54:32;;;;;;;12.03;10.00;;;-0.80;99.90;;;;;;4960806;28;20525;-77
2022/03/05 02:57:01;;;;;;;12.13;10.07;;;-0.80;99.90;;;;;;4943070;29;20502;-76
2022/03/05 02:59:27;;;;;;;14.67;10.47;;;-0.90;99.90;;;;;;4943644;29;20510;-76
2022/03/05 03:01:54;;;;;;;12.03;10.83;;;-0.90;99.90;;;;;;4968248;28;20445;-77
2022/03/05 03:04:21;;;;;;;11.17;10.10;;;-0.90;99.90;;;;;;4964315;28;20806;-76
2022/03/05 03:06:50;;;;;;;10.97;9.63;;;-1.00;99.90;;;;;;4963530;28;20492;-76
2022/03/05 03:09:17;;;;;;;12.90;11.57;;;-1.00;99.90;;;;;;4958860;28;20520;-76
2022/03/05 03:11:44;;;;;;;11.77;10.57;;;-0.90;99.90;;;;;;4962639;28;20450;-77
2022/03/05 03:14:12;;;;;;;13.97;10.57;;;-1.00;99.90;;;;;;4965447;28;20438;-76
2022/03/05 03:16:39;;;;;;;13.70;10.43;;;-1.00;99.90;;;;;;4963780;28;20493;-77
2022/03/05 03:19:06;;;;;;;11.53;10.33;;;-1.00;99.90;;;;;;4947911;28;20449;-76
2022/03/05 03:21:32;;;;;;;11.63;10.43;;;-1.00;99.90;;;;;;4943758;28;20469;-76
2022/03/05 03:24:00;;;;;;;13.20;11.33;;;-1.10;99.90;;;;;;4962876;28;20452;-77
2022/03/05 03:26:27;;;;;;;11.67;10.57;;;-1.00;99.90;;;;;;4962443;28;20457;-76
2022/03/05 03:28:53;;;;;;;11.70;10.50;;;-1.00;99.90;;;;;;4968744;28;20446;-76
2022/03/05 03:31:22;;;;;;;10.87;9.87;;;-1.10;99.90;;;;;;4966401;28;20725;-76
2022/03/05 03:33:48;;;;;;;11.37;10.17;;;-1.10;99.90;;;;;;4972061;28;20434;-76
2022/03/05 03:36:15;;;;;;;11.33;10.17;;;-1.20;99.90;;;;;;4966924;28;20472;-75
2022/03/05 03:38:42;;;;;;;11.43;10.23;;;-1.20;99.90;;;;;;4944453;28;20476;-76
2022/03/05 03:41:09;;;;;;;10.97;9.87;;;-1.20;99.90;;;;;;4942783;28;20482;-77
2022/03/05 03:43:36;;;;;;;11.17;10.07;;;-1.30;99.90;;;;;;4939327;28;20514;-78
2022/03/05 03:46:03;;;;;;;13.17;10.57;;;-1.30;99.90;;;;;;4959655;28;20473;-78
2022/03/05 03:48:31;;;;;;;12.33;10.70;;;-1.30;99.90;;;;;;4967482;28;20433;-79
2022/03/05 03:50:58;;;;;;;11.50;10.10;;;-1.40;99.90;;;;;;4972923;28;20451;-79
2022/03/05 03:53:25;;;;;;;11.83;10.50;;;-1.40;99.90;;;;;;4946584;28;20513;-79
2022/03/05 03:55:52;;;;;;;11.57;10.27;;;-1.40;99.90;;;;;;4963856;28;20483;-78
2022/03/05 03:58:19;;;;;;;11.07;9.90;;;-1.40;99.90;;;;;;4927676;28;21305;-78
2022/03/05 04:00:46;;;;;;;13.33;11.17;;;-1.40;99.90;;;;;;4955343;28;20458;-80
2022/03/05 04:03:13;;;;;;;14.40;11.60;;;-1.50;99.90;;;;;;4942780;28;21160;-80
2022/03/05 04:06:06;;;;;;;11.33;10.20;;;-1.40;99.90;;;;;;4958359;28;20542;-80
2022/03/05 04:08:43;;;;;;;13.63;11.00;;;-1.50;99.90;;;;;;4937369;28;20543;-77
2022/03/05 04:11:11;;;;;;;15.70;10.97;;;-1.50;99.90;;;;;;4945447;28;20439;-76
2022/03/05 04:13:38;;;;;;;12.80;11.43;;;-1.50;99.90;;;;;;4955588;28;20466;-80
2022/03/05 04:16:06;;;;;;;14.17;11.80;;;-1.50;99.90;;;;;;5010816;23;20846;-78
2022/03/05 04:18:34;;;;;;;12.77;11.13;;;-1.50;99.90;;;;;;5003312;28;20647;-77
2022/03/05 04:21:01;;;;;;;12.90;10.63;;;-1.50;99.90;;;;;;4991512;28;20462;-78
2022/03/05 04:23:29;;;;;;;17.00;11.90;;;-1.50;99.90;;;;;;4990047;28;20456;-77
2022/03/05 04:25:56;;;;;;;13.70;11.33;;;-1.60;99.90;;;;;;4994321;28;20925;-78
2022/03/05 04:28:23;;;;;;;14.23;12.23;;;-1.60;99.90;;;;;;4991973;28;20974;-77
2022/03/05 04:30:50;;;;;;;14.03;12.30;;;-1.60;99.90;;;;;;4992363;28;20507;-77
2022/03/05 04:33:17;;;;;;;13.60;11.67;;;-1.70;99.90;;;;;;5009031;28;20446;-78
2022/03/05 04:35:44;;;;;;;13.83;11.77;;;-1.70;99.90;;;;;;4989567;28;20468;-78
2022/03/05 04:38:11;;;;;;;13.57;11.13;;;-1.70;99.90;;;;;;4990809;28;20476;-77
2022/03/05 04:40:39;;;;;;;13.83;11.70;;;-1.80;99.90;;;;;;5006155;28;20928;-77
2022/03/05 04:43:06;;;;;;;13.40;12.00;;;-1.80;99.90;;;;;;4994097;28;20983;-77
2022/03/05 04:45:33;;;;;;;13.87;12.17;;;-1.80;99.90;;;;;;5002110;28;20448;-77
2022/03/05 04:48:00;;;;;;;12.03;10.47;;;-1.80;99.90;;;;;;4986232;28;20497;-78
2022/03/05 04:50:27;;;;;;;14.53;12.57;;;-1.70;99.90;;;;;;4990388;28;20455;-78
2022/03/05 04:52:54;;;;;;;15.30;11.87;;;-1.70;99.90;;;;;;5014327;28;20444;-78
2022/03/05 04:55:21;;;;;;;14.63;11.37;;;-1.70;99.90;;;;;;4996941;28;20476;-77
2022/03/05 04:57:50;;;;;;;16.80;13.23;;;-1.80;99.90;;;;;;4996494;28;20524;-78
2022/03/05 05:00:17;;;;;;;14.57;12.23;;;-1.80;99.90;;;;;;5009177;28;20523;-78
2022/03/05 05:02:43;;;;;;;14.70;12.43;;;-1.80;99.90;;;;;;4993516;28;20463;-77
2022/03/05 05:05:10;;;;;;;14.43;12.93;;;-1.80;99.90;;;;;;4992043;28;21012;-80
2022/03/05 05:07:38;;;;;;;18.83;12.77;;;-1.80;99.90;;;;;;4991942;28;20455;-78
2022/03/05 05:10:06;;;;;;;15.83;13.00;;;-1.90;99.90;;;;;;4987536;28;20452;-79
2022/03/05 05:12:33;;;;;;;19.03;13.50;;;-1.90;99.90;;;;;;4988794;28;20444;-77
2022/03/05 05:15:02;;;;;;;13.30;11.37;;;-1.90;99.90;;;;;;4989503;28;20449;-78
2022/03/05 05:17:28;;;;;;;18.10;13.60;;;-2.00;99.90;;;;;;5007219;28;20472;-78
2022/03/05 05:19:56;;;;;;;17.17;12.80;;;-2.00;99.90;;;;;;4993045;28;20459;-79
2022/03/05 05:22:23;;;;;;;15.57;12.17;;;-2.00;99.90;;;;;;5006724;28;20440;-78
2022/03/05 05:24:50;;;;;;;18.57;12.87;;;-2.00;99.90;;;;;;4994078;28;20480;-79
2022/03/05 05:27:17;;;;;;;17.80;12.97;;;-2.00;99.90;;;;;;5002748;28;20432;-79
2022/03/05 05:29:43;;;;;;;15.47;13.23;;;-2.00;99.90;;;;;;4989411;28;20440;-78
2022/03/05 05:32:12;;;;;;;16.17;13.13;;;-2.00;99.90;;;;;;5010931;28;20444;-77
2022/03/05 05:34:41;;;;;;;14.90;12.67;;;-2.00;99.90;;;;;;5008045;28;20444;-78
2022/03/05 05:37:09;;;;;;;16.17;12.50;;;-2.10;99.90;;;;;;4990233;28;20518;-77
2022/03/05 05:39:37;;;;;;;16.80;13.43;;;-2.10;99.90;;;;;;4983144;28;20444;-78
2022/03/05 05:42:05;;;;;;;18.30;13.83;;;-2.10;99.90;;;;;;4989153;28;20444;-78
2022/03/05 05:44:32;;;;;;;15.63;12.90;;;-2.00;99.90;;;;;;5004761;28;20438;-78
2022/03/05 05:46:59;;;;;;;15.47;13.33;;;-2.20;99.90;;;;;;5002694;28;20969;-79
2022/03/05 05:49:27;;;;;;;16.37;13.00;;;-2.30;99.90;;;;;;5006981;28;20846;-79
2022/03/05 05:51:55;;;;;;;14.60;12.93;;;-2.40;99.90;;;;;;5003105;28;20448;-79
2022/03/05 05:54:22;;;;;;;17.77;13.30;;;-2.40;99.90;;;;;;4995632;28;20455;-78
2022/03/05 05:56:48;;;;;;;14.87;13.10;;;-2.40;99.90;;;;;;4990983;28;20532;-79
2022/03/05 05:59:16;;;;;;;19.70;13.17;;;-2.40;99.90;;;;;;5004453;28;20478;-77
2022/03/05 06:01:43;;;;;;;16.77;13.63;;;-2.40;99.90;;;;;;4993379;28;20460;-77
2022/03/05 06:04:10;;;;;;;16.70;13.93;;;-2.40;99.90;;;;;;4994797;28;20451;-79
2022/03/05 06:06:38;;;;;;;18.33;14.33;;;-2.40;99.90;;;;;;5007059;28;20463;-78
2022/03/05 06:09:05;;;;;;;16.60;12.73;;;-2.40;99.90;;;;;;5009003;28;20988;-79
2022/03/05 06:11:32;;;;;;;14.17;12.43;;;-2.40;99.90;;;;;;4992673;28;20448;-78
2022/03/05 06:13:59;;;;;;;17.53;13.00;;;-2.40;99.90;;;;;;4996048;28;20459;-78
2022/03/05 06:16:26;;;;;;;17.33;13.83;;;-2.40;99.90;;;;;;5016276;28;20895;-78
2022/03/05 06:18:53;;;;;;;16.43;13.50;;;-2.40;99.90;;;;;;5019981;28;20509;-78
2022/03/05 06:21:23;;;;;;;14.17;12.53;;;-2.30;99.90;;;;;;4993099;28;20464;-78
2022/03/05 06:23:51;;;;;;;19.27;13.07;;;-2.30;99.90;;;;;;4996131;28;20962;-77
2022/03/05 06:26:19;;;;;;;19.43;14.87;;;-2.30;99.90;;;;;;5005246;28;20455;-79
2022/03/05 06:28:46;;;;;;;18.07;14.23;;;-2.20;99.90;;;;;;5014183;28;20485;-78
2022/03/05 06:31:13;;;;;;;17.50;14.63;;;-2.00;99.90;;;;;;5007955;28;20440;-78
2022/03/05 06:33:40;;;;;;;17.67;14.50;;;-1.90;99.90;;;;;;5016740;28;20531;-79
2022/03/05 06:36:07;;;;;;;17.33;13.57;;;-1.90;99.90;;;;;;5021334;28;20467;-77
2022/03/05 06:38:34;;;;;;;20.23;14.10;;;-1.80;99.90;;;;;;4988179;28;20467;-79
2022/03/05 06:41:02;;;;;;;17.90;14.60;;;-1.40;99.90;;;;;;4996530;28;20464;-76
2022/03/05 06:43:29;;;;;;;19.07;14.70;;;-0.90;99.90;;;;;;5001191;28;20546;-77
2022/03/05 06:45:56;;;;;;;15.33;13.47;;;-0.50;99.90;;;;;;4998634;28;20883;-76
2022/03/05 06:48:22;;;;;;;17.13;14.67;;;-0.10;99.90;;;;;;4995271;28;20454;-77
2022/03/05 06:50:49;;;;;;;19.57;14.87;;;0.10;99.90;;;;;;5022925;28;20440;-78
2022/03/05 06:53:16;;;;;;;18.93;15.33;;;0.30;99.90;;;;;;5002441;28;20833;-77
2022/03/05 06:55:43;;;;;;;17.37;14.67;;;0.50;99.90;;;;;;5003689;28;20478;-77
2022/03/05 06:58:11;;;;;;;16.80;14.83;;;0.80;99.90;;;;;;5004043;28;20476;-78
2022/03/05 07:00:38;;;;;;;20.83;15.00;;;0.80;99.90;;;;;;4993397;28;20448;-78
2022/03/05 07:03:05;;;;;;;18.17;14.37;;;1.00;99.90;;;;;;4993339;28;20457;-79
2022/03/05 07:05:32;;;;;;;19.43;15.30;;;1.10;99.90;;;;;;4996131;28;20480;-79
2022/03/05 07:07:58;;;;;;;21.93;16.40;;;1.30;99.90;;;;;;4983818;28;20465;-78
2022/03/05 07:10:25;;;;;;;23.93;15.73;;;1.60;99.90;;;;;;5003699;28;20440;-79
2022/03/05 07:12:52;;;;;;;20.93;16.37;;;1.70;99.90;;;;;;4989092;28;20458;-78
2022/03/05 07:15:21;;;;;;;18.77;16.03;;;1.90;99.90;;;;;;4990163;28;21002;-78
2022/03/05 07:17:49;;;;;;;21.30;16.07;;;2.10;99.90;;;;;;4987740;28;20566;-78
2022/03/05 07:20:16;;;;;;;20.93;16.20;;;2.30;99.90;;;;;;4994187;28;21014;-80
2022/03/05 07:22:43;;;;;;;17.53;15.37;;;2.50;99.90;;;;;;5008466;28;20494;-78
2022/03/05 07:25:10;;;;;;;17.80;15.00;;;2.70;99.90;;;;;;5008339;28;20821;-78
2022/03/05 07:27:37;;;;;;;18.55;15.30;;;2.90;99.90;;;;;;4992432;28;20566;-77
2022/03/05 07:30:04;;;;;;;16.97;14.47;;;3.00;99.90;;;;;;5015591;28;20494;-78
2022/03/05 07:32:33;;;;;;;18.90;14.43;;;2.90;99.90;;;;;;5004550;28;20258;-75
2022/03/05 07:34:59;;;;;;;19.57;14.70;;;2.90;99.90;;;;;;5022688;28;20662;-77
2022/03/05 07:37:26;;;;;;;18.43;13.73;;;2.90;99.90;;;;;;4986286;28;20201;-77
2022/03/05 07:39:53;;;;;;;18.77;14.10;;;2.80;99.90;;;;;;4989734;28;20228;-77
2022/03/05 07:42:20;;;;;;;18.70;14.90;;;2.70;99.90;;;;;;5019964;28;20204;-77
2022/03/05 07:44:46;;;;;;;21.43;14.50;;;2.90;99.90;;;;;;5007711;28;20199;-77
2022/03/05 07:47:13;;;;;;;19.40;14.60;;;3.00;99.90;;;;;;5002564;28;20204;-79
2022/03/05 07:49:42;;;;;;;21.63;15.83;;;3.40;99.90;;;;;;4986019;28;20197;-78
2022/03/05 07:52:08;;;;;;;19.97;15.43;;;3.60;99.90;;;;;;4997915;28;20213;-78
2022/03/05 07:54:35;;;;;;;20.50;16.17;;;3.90;99.90;;;;;;5010508;28;20570;-79
2022/03/05 07:57:02;;;;;;;19.33;16.43;;;4.30;99.90;;;;;;5003680;28;20297;-78
2022/03/05 07:59:29;;;;;;;21.03;16.93;;;4.50;99.90;;;;;;5005174;28;20633;-78
2022/03/05 08:01:56;;;;;;;22.10;17.57;;;4.80;99.90;;;;;;5004744;28;20205;-77
2022/03/05 08:04:29;;;;;;;22.67;18.63;;;5.00;99.90;;;;;;5009894;28;20203;-78
2022/03/05 08:06:58;;;;;;;26.50;18.43;;;5.30;99.90;;;;;;4989722;28;20252;-78
2022/03/05 08:09:25;;;;;;;23.17;18.70;;;5.60;99.90;;;;;;4992558;28;20218;-79
2022/03/05 08:11:52;;;;;;;26.60;15.10;;;6.00;99.90;;;;;;4993454;28;20209;-78
2022/03/05 08:14:19;;;;;;;23.27;15.77;;;6.20;99.90;;;;;;5006858;28;20240;-77
2022/03/05 08:16:46;;;;;;;24.83;14.93;;;6.60;99.90;;;;;;4990707;28;20279;-79
2022/03/05 08:19:13;;;;;;;22.33;16.60;;;7.00;99.90;;;;;;5004244;28;20226;-78
2022/03/05 08:21:40;;;;;;;25.63;15.37;;;7.20;99.90;;;;;;4992489;28;20204;-78
2022/03/05 08:24:09;;;;;;;21.10;14.37;;;7.50;99.90;;;;;;5012204;28;20206;-78
2022/03/05 08:26:36;;;;;;;20.83;14.50;;;7.40;99.90;;;;;;4989032;28;20239;-78
2022/03/05 08:29:04;;;;;;;25.53;18.80;;;7.60;99.90;;;;;;4991932;28;20203;-78
2022/03/05 08:31:31;;;;;;;22.20;18.70;;;7.70;99.90;;;;;;4990049;28;20197;-77
2022/03/05 08:34:01;;;;;;;23.60;17.80;;;7.90;99.90;;;;;;5007559;28;20205;-77
2022/03/05 08:36:29;;;;;;;18.97;15.50;;;7.70;99.90;;;;;;4984368;28;20748;-77
2022/03/05 08:38:56;;;;;;;20.70;16.63;;;7.50;99.90;;;;;;4988214;28;20215;-78
2022/03/05 08:41:24;;;;;;;22.93;16.03;;;7.50;99.90;;;;;;5007835;28;20205;-78
2022/03/05 08:43:51;;;;;;;23.17;17.23;;;7.60;99.90;;;;;;5011948;28;20287;-78
2022/03/05 08:46:19;;;;;;;21.93;15.63;;;7.40;99.90;;;;;;5002598;28;20227;-77
2022/03/05 08:48:47;;;;;;;22.53;17.93;;;7.10;99.90;;;;;;5019152;28;20667;-78
2022/03/05 08:51:14;;;;;;;21.20;14.80;;;6.90;99.90;;;;;;4994227;28;20201;-77
2022/03/05 08:53:41;;;;;;;20.43;13.23;;;7.20;99.90;;;;;;5005029;28;20203;-78
2022/03/05 08:56:08;;;;;;;21.97;15.03;;;7.50;99.90;;;;;;4999025;28;20248;-78
2022/03/05 08:58:37;;;;;;;21.30;14.87;;;7.60;99.90;;;;;;4990120;28;20228;-77
2022/03/05 09:01:05;;;;;;;20.60;16.97;;;7.50;99.90;;;;;;5000878;28;20227;-78
2022/03/05 09:03:32;;;;;;;20.70;14.10;;;7.70;99.90;;;;;;5007044;28;20302;-78
2022/03/05 09:06:00;;;;;;;20.90;13.80;;;7.80;99.90;;;;;;5018388;28;20235;-78
2022/03/05 09:08:27;;;;;;;25.10;17.20;;;7.70;99.90;;;;;;5009105;28;20204;-77
2022/03/05 09:10:54;;;;;;;21.57;13.83;;;7.80;99.90;;;;;;5014024;28;20200;-77
2022/03/05 09:13:21;;;;;;;21.50;16.27;;;7.80;99.90;;;;;;5010265;28;20704;-79
2022/03/05 09:15:50;;;;;;;18.00;11.67;;;8.10;99.90;;;;;;5005912;28;20227;-78
2022/03/05 09:18:17;;;;;;;17.50;13.23;;;8.30;99.90;;;;;;5002289;28;20346;-78
2022/03/05 09:20:47;;;;;;;18.10;14.17;;;7.80;98.70;;;;;;5012366;28;20247;-77
2022/03/05 09:23:14;;;;;;;16.97;13.53;;;7.60;98.80;;;;;;5010441;28;20254;-78
2022/03/05 09:25:42;;;;;;;17.00;13.27;;;7.90;98.90;;;;;;5009564;28;20219;-78
2022/03/05 09:28:09;;;;;;;15.07;12.03;;;7.70;97.90;;;;;;5007871;28;20685;-78
2022/03/05 09:30:37;;;;;;;13.67;12.13;;;8.00;98.20;;;;;;5010502;28;20597;-78
2022/03/05 09:33:07;;;;;;;13.73;12.00;;;8.00;97.30;;;;;;4988008;28;20697;-78
2022/03/05 09:35:34;;;;;;;15.67;11.83;;;7.60;96.70;;;;;;5001203;28;20704;-76
2022/03/05 09:38:01;;;;;;;13.33;11.87;;;7.50;96.50;;;;;;5013648;28;20208;-77
2022/03/05 09:40:28;;;;;;;16.47;12.47;;;7.50;97.30;;;;;;5021489;28;20188;-77
2022/03/05 09:42:55;;;;;;;13.60;11.90;;;7.60;96.10;;;;;;5017702;28;20195;-79
2022/03/05 09:45:22;;;;;;;14.40;12.90;;;7.40;97.10;;;;;;5018851;28;20773;-78
2022/03/05 09:47:48;;;;;;;15.93;12.47;;;7.50;97.10;;;;;;5012407;28;20204;-77
2022/03/05 09:50:17;;;;;;;13.40;12.00;;;7.30;97.20;;;;;;5008442;28;20215;-78
2022/03/05 09:52:43;;;;;;;12.60;11.30;;;7.10;97.20;;;;;;5013117;28;20223;-75
2022/03/05 09:55:12;;;;;;;14.13;11.93;;;7.50;97.50;;;;;;5011897;28;20218;-78
2022/03/05 09:57:39;;;;;;;14.17;11.90;;;7.50;97.50;;;;;;5013425;28;20195;-76
2022/03/05 10:00:07;;;;;;;14.83;12.10;;;7.60;96.50;;;;;;4996082;28;20338;-77
2022/03/05 10:02:35;;;;;;;13.07;11.70;;;7.40;96.10;;;;;;5018299;28;20225;-80
2022/03/05 10:05:17;;;;;;;13.40;12.00;;;7.00;96.60;;;;;;5000425;28;20215;-76
2022/03/05 10:08:12;;;;;;;12.40;11.10;;;6.80;96.40;;;;;;5019820;28;20209;-79
2022/03/05 10:10:49;;;;;;;13.77;12.27;;;6.90;97.10;;;;;;5013181;28;20210;-77
2022/03/05 10:13:26;;;;;;;13.57;12.13;;;6.90;96.80;;;;;;5035101;28;20186;-77
2022/03/05 10:15:56;;;;;;;13.57;11.80;;;6.70;97.00;;;;;;5039725;23;20316;-79
2022/03/05 10:18:28;;;;;;;12.47;11.03;;;6.70;97.10;;;;;;5014090;28;20666;-77
2022/03/05 10:20:56;;;;;;;13.30;10.87;;;6.70;96.50;;;;;;5010955;28;20221;-78
2022/03/05 10:23:24;;;;;;;13.13;11.73;;;6.60;96.90;;;;;;5017009;28;20202;-76
2022/03/05 10:25:52;;;;;;;11.57;10.37;;;6.50;96.70;;;;;;5010103;28;20749;-78
2022/03/05 10:28:22;;;;;;;12.57;11.27;;;6.50;96.30;;;;;;4981548;28;20206;-77
2022/03/05 10:30:50;;;;;;;12.53;11.20;;;6.60;96.60;;;;;;4985055;28;20258;-76
2022/03/05 10:33:28;;;;;;;11.67;10.00;;;6.60;96.20;;;;;;5008529;28;20394;-77
2022/03/05 10:35:58;;;;;;;12.43;10.60;;;6.60;96.30;;;;;;4987497;28;20711;-76
2022/03/05 10:38:43;;;;;;;9.90;6.50;;;6.50;96.00;;;;;;5014206;28;20189;-78
2022/03/05 10:41:09;;;;;;;10.10;8.00;;;6.50;96.60;;;;;;5015693;28;20725;-76
2022/03/05 10:43:36;;;;;;;8.83;6.33;;;6.30;95.30;;;;;;4998331;28;20602;-77
2022/03/05 10:46:03;;;;;;;11.37;10.13;;;6.30;95.60;;;;;;4998112;28;20217;-76
2022/03/05 10:48:32;;;;;;;9.97;8.97;;;6.30;96.20;;;;;;5028134;28;20194;-77
2022/03/05 10:51:02;;;;;;;11.20;10.10;;;6.40;95.80;;;;;;4996773;28;20205;-74
2022/03/05 10:53:37;;;;;;;10.20;9.20;;;6.30;95.20;;;;;;5011692;28;20673;-77
2022/03/05 10:56:36;;;;;;;9.80;8.80;;;5.90;94.70;;;;;;5011858;28;20710;-77
2022/03/05 10:59:08;;;;;;;10.63;9.53;;;5.90;95.50;;;;;;5007481;28;20205;-77
2022/03/05 11:01:37;;;;;;;9.63;7.97;;;5.90;96.00;;;;;;5009130;28;20204;-75
2022/03/05 11:04:05;;;;;;;9.97;8.50;;;6.00;95.50;;;;;;5014344;28;20652;-80
2022/03/05 11:06:36;;;;;;;15.10;10.40;;;6.00;95.70;;;;;;5016545;28;20217;-78
2022/03/05 11:09:03;;;;;;;10.30;8.90;;;6.10;95.70;;;;;;5018780;28;20216;-79
2022/03/05 11:11:31;;;;;;;9.80;8.80;;;6.20;96.10;;;;;;5019835;28;20667;-78
2022/03/05 11:13:58;;;;;;;10.10;9.07;;;6.20;95.00;;;;;;5015511;28;20578;-77
2022/03/05 11:16:26;;;;;;;9.50;8.57;;;6.30;94.90;;;;;;5006782;28;20622;-77
2022/03/05 11:18:55;;;;;;;11.13;10.13;;;6.20;94.40;;;;;;4999512;28;20634;-77
2022/03/05 11:21:22;;;;;;;11.47;10.37;;;6.20;95.50;;;;;;5008275;28;20224;-77
2022/03/05 11:23:52;;;;;;;11.23;10.13;;;6.20;95.20;;;;;;5015298;28;20576;-78
2022/03/05 11:26:19;;;;;;;9.63;6.13;;;6.20;95.80;;;;;;5009037;28;20546;-77
2022/03/05 11:28:48;;;;;;;7.57;5.47;;;6.30;95.60;;;;;;4990334;28;20214;-80
2022/03/05 11:31:20;;;;;;;10.53;8.77;;;6.30;95.30;;;;;;5009672;28;20225;-78
2022/03/05 11:33:48;;;;;;;10.73;9.60;;;6.40;95.50;;;;;;5006104;28;20197;-75
2022/03/05 11:36:29;;;;;;;11.27;9.63;;;6.40;95.00;;;;;;5011729;28;20230;-78
2022/03/05 11:39:18;;;;;;;10.00;9.00;;;6.30;95.20;;;;;;5020548;28;20236;-79
2022/03/05 11:41:54;;;;;;;10.13;9.07;;;6.50;95.50;;;;;;5028847;28;20274;-78
2022/03/05 11:44:23;;;;;;;10.17;9.17;;;6.50;94.90;;;;;;5028979;28;20201;-78
2022/03/05 11:47:10;;;;;;;10.77;9.63;;;6.40;94.50;;;;;;5013896;28;20226;-80
2022/03/05 11:50:19;;;;;;;11.17;10.07;;;6.40;94.80;;;;;;5031988;28;20224;-79
2022/03/05 11:53:07;;;;;;;10.90;9.50;;;6.30;94.90;;;;;;5024595;28;20202;-75
2022/03/05 11:55:41;;;;;;;10.90;9.70;;;6.30;95.10;;;;;;5016934;28;20214;-79
2022/03/05 11:58:34;;;;;;;11.53;10.10;;;6.20;95.00;;;;;;5011554;28;20213;-81
2022/03/05 12:01:41;;;;;;;11.50;10.40;;;6.30;95.50;;;;;;5015971;28;20198;-76
2022/03/05 12:04:22;;;;;;;12.17;10.37;;;6.30;95.70;;;;;;5006779;28;20288;-76
2022/03/05 12:06:59;;;;;;;12.83;10.27;;;6.30;95.80;;;;;;5010994;28;20226;-76
2022/03/05 12:09:46;;;;;;;12.07;10.60;;;6.30;96.30;;;;;;4991558;28;20280;-75
2022/03/05 12:12:15;;;;;;;11.93;10.67;;;6.30;96.50;;;;;;5006239;28;20304;-76
2022/03/05 12:15:22;;;;;;;12.27;11.00;;;6.30;96.20;;;;;;5002472;28;20198;-76
2022/03/05 12:17:51;;;;;;;11.83;10.60;;;6.30;96.60;;;;;;5015393;28;20284;-77
2022/03/05 12:20:21;;;;;;;12.73;10.60;;;6.30;96.40;;;;;;4998810;28;20367;-76
2022/03/05 12:22:55;;;;;;;11.60;10.40;;;6.40;95.60;;;;;;5001077;28;20205;-76
2022/03/05 12:25:24;;;;;;;11.53;10.30;;;6.40;95.80;;;;;;5016552;28;20209;-78
2022/03/05 12:27:53;;;;;;;12.23;10.93;;;6.30;95.90;;;;;;5012789;28;20523;-77
2022/03/05 12:30:22;;;;;;;10.90;9.80;;;6.30;95.60;;;;;;5014950;28;20236;-76
2022/03/05 12:32:51;;;;;;;12.93;10.90;;;6.40;96.00;;;;;;5013357;28;20231;-76
2022/03/05 12:35:18;;;;;;;11.27;10.07;;;6.40;95.30;;;;;;5012523;28;20201;-77
2022/03/05 12:37:45;;;;;;;11.80;10.27;;;6.40;95.50;;;;;;4987364;28;20704;-77
2022/03/05 12:40:13;;;;;;;13.33;10.63;;;6.40;95.50;;;;;;5012645;28;20233;-77
2022/03/05 12:42:44;;;;;;;11.80;10.50;;;6.30;95.10;;;;;;4996810;28;20199;-77
2022/03/05 12:45:19;;;;;;;12.27;11.00;;;6.30;95.60;;;;;;5011539;28;20225;-77